createdAt,value
2018-04-14T00:01:59.381Z,13.93
2018-04-14T00:04:26.929Z,13.97
2018-04-14T00:06:54.431Z,13.57
2018-04-14T00:09:21.939Z,13.80
2018-04-14T00:11:49.463Z,13.97
2018-04-14T00:14:17.012Z,13.43
2018-04-14T00:16:44.528Z,13.10
2018-04-14T00:19:12.081Z,12.87
2018-04-14T00:21:39.717Z,13.30
2018-04-14T00:24:07.286Z,14.17
2018-04-14T00:26:34.841Z,14.30
2018-04-14T00:29:02.411Z,14.30
2018-04-14T00:31:29.920Z,15.27
2018-04-14T00:33:57.476Z,14.07
2018-04-14T00:36:25.044Z,16.50
2018-04-14T00:38:52.551Z,15.77
2018-04-14T00:41:20.065Z,17.57
2018-04-14T00:43:47.585Z,18.03
2018-04-14T00:46:15.142Z,16.77
2018-04-14T00:48:42.670Z,17.20
2018-04-14T00:51:10.232Z,17.67
2018-04-14T00:53:47.729Z,17.63
2018-04-14T00:56:15.231Z,17.80
2018-04-14T00:58:42.775Z,17.83
2018-04-14T01:01:10.279Z,18.40
2018-04-14T01:03:37.786Z,16.83
2018-04-14T01:06:05.299Z,18.13
2018-04-14T01:08:32.807Z,18.37
2018-04-14T01:11:00.318Z,16.97
2018-04-14T01:13:27.867Z,18.57
2018-04-14T01:15:55.370Z,18.20
2018-04-14T01:18:22.883Z,18.93
2018-04-14T01:20:50.395Z,19.63
2018-04-14T01:23:17.938Z,18.27
2018-04-14T01:25:45.444Z,20.73
2018-04-14T01:28:12.948Z,18.07
2018-04-14T01:30:40.515Z,19.33
2018-04-14T01:33:08.023Z,17.40
2018-04-14T01:35:35.532Z,19.43
2018-04-14T01:38:03.037Z,18.70
2018-04-14T01:40:30.583Z,20.10
2018-04-14T01:42:58.093Z,18.17
2018-04-14T01:45:25.616Z,18.40
2018-04-14T01:47:53.159Z,18.80
2018-04-14T01:50:20.681Z,18.27
2018-04-14T01:52:48.245Z,18.37
2018-04-14T01:55:15.769Z,18.87
2018-04-14T01:57:43.277Z,19.20
2018-04-14T02:00:10.828Z,18.13
2018-04-14T02:02:38.333Z,18.90
2018-04-14T02:05:05.883Z,18.40
2018-04-14T02:07:33.411Z,19.07
2018-04-14T02:10:00.958Z,19.87
2018-04-14T02:12:28.475Z,19.30
2018-04-14T02:14:55.996Z,19.53
2018-04-14T02:17:23.504Z,19.03
2018-04-14T02:19:51.057Z,19.23
2018-04-14T02:22:18.566Z,18.93
2018-04-14T02:24:46.111Z,18.83
2018-04-14T02:27:13.670Z,19.40
2018-04-14T02:29:41.184Z,20.70
2018-04-14T02:32:08.693Z,19.20
2018-04-14T02:34:36.217Z,19.17
2018-04-14T02:37:03.780Z,19.50
2018-04-14T02:39:31.328Z,20.53
2018-04-14T02:41:58.846Z,20.27
2018-04-14T02:44:26.397Z,19.93
2018-04-14T02:46:53.937Z,19.63
2018-04-14T02:49:21.454Z,19.97
2018-04-14T02:51:48.972Z,21.57
2018-04-14T02:54:16.516Z,22.43
2018-04-14T02:56:44.020Z,20.80
2018-04-14T02:59:11.527Z,20.30
2018-04-14T03:01:39.082Z,20.10
2018-04-14T03:04:06.589Z,20.37
2018-04-14T03:06:34.100Z,19.13
2018-04-14T03:09:01.644Z,20.00
2018-04-14T03:11:29.152Z,19.60
2018-04-14T03:13:56.700Z,20.97
2018-04-14T03:16:24.208Z,20.63
2018-04-14T03:18:51.763Z,20.70
2018-04-14T03:21:19.267Z,21.60
2018-04-14T03:23:46.815Z,21.50
2018-04-14T03:26:14.315Z,21.43
2018-04-14T03:28:41.824Z,21.17
2018-04-14T03:31:09.363Z,21.00
2018-04-14T03:33:36.884Z,21.27
2018-04-14T03:36:04.400Z,20.20
2018-04-14T03:38:31.912Z,21.70
2018-04-14T03:40:59.472Z,22.20
2018-04-14T03:43:26.983Z,21.13
2018-04-14T03:45:54.482Z,20.97
2018-04-14T03:48:21.995Z,20.93
2018-04-14T03:50:49.495Z,21.13
2018-04-14T03:53:17.003Z,19.93
2018-04-14T03:55:44.510Z,22.13
2018-04-14T03:58:12.027Z,21.83
2018-04-14T04:00:39.575Z,21.93
2018-04-14T04:03:07.095Z,22.80
2018-04-14T04:05:34.608Z,22.70
2018-04-14T04:08:02.119Z,21.17
2018-04-14T04:10:29.627Z,21.43
2018-04-14T04:12:57.131Z,21.80
2018-04-14T04:15:24.643Z,21.57
2018-04-14T04:17:52.197Z,20.63
2018-04-14T04:20:32.331Z,22.63
2018-04-14T04:26:05.030Z,18.37
2018-04-14T04:28:32.539Z,19.33
2018-04-14T04:31:00.095Z,20.30
2018-04-14T04:33:27.599Z,20.50
2018-04-14T04:35:55.117Z,20.10
2018-04-14T04:38:22.650Z,18.57
2018-04-14T04:40:50.159Z,18.73
2018-04-14T04:43:17.672Z,18.37
2018-04-14T04:45:45.171Z,17.47
2018-04-14T04:48:12.728Z,17.90
2018-04-14T04:50:40.248Z,16.30
2018-04-14T04:53:07.763Z,17.53
2018-04-14T04:55:35.315Z,17.10
2018-04-14T04:58:02.879Z,18.00
2018-04-14T05:00:30.435Z,17.10
2018-04-14T05:02:57.947Z,18.37
2018-04-14T05:05:25.462Z,16.87
2018-04-14T05:07:52.958Z,17.80
2018-04-14T05:10:20.520Z,17.43
2018-04-14T05:12:48.022Z,15.77
2018-04-14T05:15:15.537Z,16.10
2018-04-14T05:17:43.043Z,16.17
2018-04-14T05:20:10.560Z,16.83
2018-04-14T05:22:38.116Z,17.47
2018-04-14T05:25:05.629Z,18.93
2018-04-14T05:27:33.197Z,18.43
2018-04-14T05:30:00.740Z,18.50
2018-04-14T05:32:28.489Z,19.27
2018-04-14T05:34:56.048Z,20.33
2018-04-14T05:37:23.602Z,19.23
2018-04-14T05:39:51.168Z,18.17
2018-04-14T05:42:18.678Z,18.97
2018-04-14T05:44:46.196Z,18.70
2018-04-14T05:47:13.707Z,19.17
2018-04-14T05:49:41.279Z,17.93
2018-04-14T05:52:08.841Z,18.67
2018-04-14T05:54:36.352Z,18.53
2018-04-14T05:57:03.908Z,19.30
2018-04-14T05:59:31.467Z,21.73
2018-04-14T06:01:59.016Z,20.20
2018-04-14T06:04:26.521Z,21.10
2018-04-14T06:06:54.102Z,21.13
2018-04-14T06:09:21.655Z,28.40
2018-04-14T06:11:49.163Z,22.07
2018-04-14T06:14:16.707Z,21.57
2018-04-14T06:16:44.233Z,22.73
2018-04-14T06:19:11.776Z,23.80
2018-04-14T06:21:39.280Z,23.20
2018-04-14T06:24:06.824Z,21.80
2018-04-14T06:26:34.328Z,23.90
2018-04-14T06:29:01.843Z,23.50
2018-04-14T06:31:29.360Z,24.23
2018-04-14T06:33:56.868Z,24.63
2018-04-14T06:36:24.391Z,23.47
2018-04-14T06:38:51.948Z,23.47
2018-04-14T06:41:19.483Z,23.00
2018-04-14T06:43:46.996Z,22.30
2018-04-14T06:46:14.568Z,22.70
2018-04-14T06:48:42.075Z,23.73
2018-04-14T06:51:09.597Z,23.10
2018-04-14T06:53:37.149Z,21.80
2018-04-14T06:56:04.684Z,22.43
2018-04-14T06:58:32.227Z,20.23
2018-04-14T07:00:59.743Z,19.43
2018-04-14T07:03:27.256Z,20.07
2018-04-14T07:05:54.769Z,21.70
2018-04-14T07:08:22.328Z,20.00
2018-04-14T07:10:49.860Z,20.70
2018-04-14T07:13:17.403Z,21.50
2018-04-14T07:15:44.922Z,23.08
2018-04-14T07:18:12.481Z,21.92
2018-04-14T07:20:40.045Z,21.90
2018-04-14T07:23:07.528Z,22.20
2018-04-14T07:25:35.075Z,20.40
2018-04-14T07:28:02.628Z,22.25
2018-04-14T07:30:30.166Z,21.15
2018-04-14T07:32:57.671Z,21.42
2018-04-14T07:35:25.219Z,22.87
2018-04-14T07:37:52.729Z,23.40
2018-04-14T07:40:20.348Z,23.40
2018-04-14T07:42:47.855Z,24.27
2018-04-14T07:45:15.364Z,23.27
2018-04-14T07:47:42.887Z,24.08
2018-04-14T07:50:10.438Z,22.17
2018-04-14T07:52:37.983Z,22.87
2018-04-14T07:55:05.492Z,22.73
2018-04-14T07:57:33.001Z,21.60
2018-04-14T08:00:00.524Z,22.87
2018-04-14T08:02:28.027Z,22.55
2018-04-14T08:04:55.542Z,22.83
2018-04-14T08:07:23.047Z,20.52
2018-04-14T08:09:50.553Z,21.70
2018-04-14T08:12:18.115Z,20.45
2018-04-14T08:14:45.635Z,19.52
2018-04-14T08:17:13.191Z,17.98
2018-04-14T08:19:40.698Z,19.60
2018-04-14T08:22:08.277Z,17.40
2018-04-14T08:24:35.795Z,18.42
2018-04-14T08:27:03.305Z,16.15
2018-04-14T08:29:30.811Z,14.87
2018-04-14T08:31:58.384Z,12.77
2018-04-14T08:34:25.899Z,13.00
2018-04-14T08:36:53.412Z,11.45
2018-04-14T08:39:20.936Z,13.25
2018-04-14T08:41:48.454Z,12.48
2018-04-14T08:44:15.969Z,13.35
2018-04-14T08:46:43.518Z,12.90
2018-04-14T08:49:11.066Z,13.32
2018-04-14T08:51:38.576Z,13.62
2018-04-14T08:54:06.089Z,13.70
2018-04-14T08:56:33.675Z,14.23
2018-04-14T08:59:01.236Z,12.52
2018-04-14T09:01:28.795Z,12.82
2018-04-14T09:03:56.307Z,12.13
2018-04-14T09:06:23.863Z,12.02
2018-04-14T09:08:51.408Z,12.80
2018-04-14T09:11:18.909Z,12.35
2018-04-14T09:13:46.488Z,13.13
2018-04-14T09:16:14.016Z,13.23
2018-04-14T09:18:41.528Z,13.48
2018-04-14T09:21:09.044Z,12.93
2018-04-14T09:23:36.557Z,14.13
2018-04-14T09:26:04.080Z,13.48
2018-04-14T09:28:31.635Z,13.43
2018-04-14T09:30:59.183Z,13.05
2018-04-14T09:33:26.727Z,12.63
2018-04-14T09:35:54.236Z,13.25
2018-04-14T09:38:21.884Z,12.45
2018-04-14T09:40:49.432Z,12.50
2018-04-14T09:43:16.935Z,14.13
2018-04-14T09:45:44.493Z,12.23
2018-04-14T09:48:12.035Z,13.48
2018-04-14T09:50:39.544Z,12.13
2018-04-14T09:53:07.109Z,12.55
2018-04-14T09:55:34.679Z,15.30
2018-04-14T09:58:02.243Z,13.25
2018-04-14T10:00:29.804Z,13.15
2018-04-14T10:03:00.228Z,12.85
2018-04-14T10:05:27.786Z,13.57
2018-04-14T10:07:55.295Z,14.07
2018-04-14T10:10:22.876Z,13.73
2018-04-14T10:12:50.382Z,13.75
2018-04-14T10:15:17.975Z,13.18
2018-04-14T10:17:45.480Z,13.13
2018-04-14T10:20:12.992Z,13.05
2018-04-14T10:22:40.503Z,11.65
2018-04-14T10:25:08.048Z,12.85
2018-04-14T10:27:35.586Z,11.90
2018-04-14T10:30:04.655Z,13.27
2018-04-14T10:32:32.163Z,12.27
2018-04-14T10:34:59.702Z,12.43
2018-04-14T10:37:27.247Z,11.38
2018-04-14T10:39:54.871Z,11.63
2018-04-14T10:42:22.425Z,12.20
2018-04-14T10:44:49.948Z,11.55
2018-04-14T10:47:17.505Z,11.85
2018-04-14T10:49:45.019Z,12.30
2018-04-14T10:52:12.547Z,18.65
2018-04-14T10:54:40.069Z,12.63
2018-04-14T10:57:07.574Z,14.10
2018-04-14T10:59:35.140Z,15.05
2018-04-14T11:02:02.683Z,10.07
2018-04-14T11:04:30.215Z,10.25
2018-04-14T11:06:57.752Z,12.02
2018-04-14T11:09:25.307Z,10.65
2018-04-14T11:11:52.836Z,9.93
2018-04-14T11:14:20.343Z,9.75
2018-04-14T11:16:47.858Z,11.10
2018-04-14T11:19:15.368Z,11.40
2018-04-14T11:21:42.936Z,10.18
2018-04-14T11:24:10.482Z,9.75
2018-04-14T11:26:38.006Z,10.43
2018-04-14T11:29:05.559Z,11.00
2018-04-14T11:31:33.074Z,9.52
2018-04-14T11:34:00.589Z,10.00
2018-04-14T11:36:28.160Z,9.45
2018-04-14T11:38:55.675Z,9.68
2018-04-14T11:41:23.179Z,9.55
2018-04-14T11:43:50.692Z,9.85
2018-04-14T11:46:18.246Z,10.00
2018-04-14T11:48:45.767Z,10.85
2018-04-14T11:51:13.317Z,10.95
2018-04-14T11:53:40.818Z,10.88
2018-04-14T11:56:08.363Z,9.43
2018-04-14T11:58:35.898Z,9.95
2018-04-14T12:01:03.440Z,12.07
2018-04-14T12:03:31.084Z,10.23
2018-04-14T12:05:58.605Z,10.93
2018-04-14T12:08:26.167Z,10.30
2018-04-14T12:10:53.679Z,10.90
2018-04-14T12:13:21.188Z,8.77
2018-04-14T12:15:48.752Z,10.07
2018-04-14T12:18:16.317Z,10.20
2018-04-14T12:20:43.823Z,10.52
2018-04-14T12:23:11.327Z,9.73
2018-04-14T12:25:38.877Z,9.88
2018-04-14T12:28:06.783Z,9.55
2018-04-14T12:30:34.332Z,10.02
2018-04-14T12:33:01.858Z,9.60
2018-04-14T12:35:29.358Z,9.75
2018-04-14T12:37:59.388Z,10.02
2018-04-14T12:40:26.918Z,9.05
2018-04-14T12:42:54.467Z,8.90
2018-04-14T12:45:22.035Z,9.30
2018-04-14T12:47:49.539Z,10.75
2018-04-14T12:50:17.176Z,9.68
2018-04-14T12:52:44.742Z,10.00
2018-04-14T12:55:12.255Z,10.20
2018-04-14T12:57:39.811Z,9.38
2018-04-14T13:00:07.355Z,9.30
2018-04-14T13:02:34.859Z,9.55
2018-04-14T13:05:02.415Z,9.02
2018-04-14T13:07:29.934Z,9.43
2018-04-14T13:09:57.475Z,9.32
2018-04-14T13:12:25.025Z,9.85
2018-04-14T13:14:52.672Z,9.60
2018-04-14T13:17:20.197Z,9.10
2018-04-14T13:19:47.755Z,9.07
2018-04-14T13:22:15.299Z,9.57
2018-04-14T13:24:42.828Z,10.00
2018-04-14T13:27:10.383Z,10.60
2018-04-14T13:29:37.917Z,9.60
2018-04-14T13:32:05.472Z,8.57
2018-04-14T13:34:33.024Z,9.47
2018-04-14T13:37:00.535Z,9.57
2018-04-14T13:39:28.064Z,9.40
2018-04-14T13:41:55.612Z,10.67
2018-04-14T13:44:23.188Z,8.77
2018-04-14T13:46:50.714Z,9.80
2018-04-14T13:49:18.216Z,8.97
2018-04-14T13:51:45.756Z,9.10
2018-04-14T13:54:13.255Z,9.17
2018-04-14T13:56:40.799Z,9.37
2018-04-14T13:59:08.323Z,10.40
2018-04-14T14:01:35.906Z,10.10
2018-04-14T14:04:03.411Z,9.83
2018-04-14T14:06:30.977Z,9.10
2018-04-14T14:08:58.486Z,8.67
2018-04-14T14:11:26.032Z,8.87
2018-04-14T14:13:53.536Z,9.40
2018-04-14T14:16:21.046Z,9.10
2018-04-14T14:18:48.611Z,10.37
2018-04-14T14:21:16.189Z,10.37
2018-04-14T14:23:43.690Z,9.83
2018-04-14T14:26:11.203Z,9.90
2018-04-14T14:28:38.752Z,10.77
2018-04-14T14:31:06.302Z,9.83
2018-04-14T14:33:33.871Z,10.20
2018-04-14T14:36:01.421Z,9.40
2018-04-14T14:38:28.942Z,9.87
2018-04-14T14:40:56.452Z,11.43
2018-04-14T14:43:24.015Z,10.33
2018-04-14T14:45:51.575Z,10.33
2018-04-14T14:48:19.089Z,9.00
2018-04-14T14:50:46.595Z,10.07
2018-04-14T14:53:14.147Z,10.03
2018-04-14T14:55:41.708Z,10.33
2018-04-14T14:58:09.226Z,11.53
2018-04-14T15:00:36.739Z,11.77
2018-04-14T15:03:04.297Z,10.43
2018-04-14T15:05:31.799Z,10.90
2018-04-14T15:07:59.312Z,10.60
2018-04-14T15:10:26.859Z,10.57
2018-04-14T15:12:54.362Z,10.20
2018-04-14T15:15:21.876Z,10.53
2018-04-14T15:17:49.396Z,11.33
2018-04-14T15:20:16.944Z,10.40
2018-04-14T15:22:44.461Z,10.77
2018-04-14T15:25:12.059Z,10.33
2018-04-14T15:27:39.581Z,10.00
2018-04-14T15:30:07.127Z,9.73
2018-04-14T15:32:34.631Z,9.60
2018-04-14T15:35:02.154Z,10.10
2018-04-14T15:37:29.710Z,9.83
2018-04-14T15:39:57.222Z,10.53
2018-04-14T15:42:24.797Z,10.67
2018-04-14T15:44:52.304Z,10.10
2018-04-14T15:47:19.977Z,11.40
2018-04-14T15:49:47.519Z,9.70
2018-04-14T15:52:15.032Z,10.70
2018-04-14T15:54:42.548Z,11.40
2018-04-14T15:57:10.051Z,10.23
2018-04-14T15:59:37.566Z,10.60
2018-04-14T16:02:05.111Z,9.87
2018-04-14T16:04:32.659Z,9.83
2018-04-14T16:07:00.223Z,10.10
2018-04-14T16:09:27.727Z,9.67
2018-04-14T16:11:55.243Z,9.50
2018-04-14T16:14:22.789Z,9.93
2018-04-14T16:16:50.303Z,10.23
2018-04-14T16:19:17.908Z,9.90
2018-04-14T16:21:45.449Z,9.97
2018-04-14T16:24:12.987Z,9.80
2018-04-14T16:26:40.539Z,10.07
2018-04-14T16:29:08.051Z,10.27
2018-04-14T16:31:35.605Z,10.63
2018-04-14T16:34:03.120Z,10.57
2018-04-14T16:36:30.638Z,10.57
2018-04-14T16:38:58.175Z,10.60
2018-04-14T16:41:25.693Z,10.97
2018-04-14T16:43:53.250Z,9.97
2018-04-14T16:46:20.864Z,11.30
2018-04-14T16:48:48.423Z,11.50
2018-04-14T16:51:15.932Z,11.57
2018-04-14T16:53:43.436Z,11.73
2018-04-14T16:56:10.994Z,13.73
2018-04-14T16:58:38.539Z,11.37
2018-04-14T17:01:06.136Z,13.07
2018-04-14T17:03:33.699Z,12.20
2018-04-14T17:06:01.239Z,14.67
2018-04-14T17:08:28.752Z,10.63
2018-04-14T17:10:56.270Z,11.30
2018-04-14T17:13:24.662Z,11.97
2018-04-14T17:15:52.203Z,12.20
2018-04-14T17:18:19.751Z,12.17
2018-04-14T17:20:47.271Z,12.53
2018-04-14T17:23:14.783Z,12.37
2018-04-14T17:25:42.337Z,12.33
2018-04-14T17:28:09.880Z,11.97
2018-04-14T17:30:37.418Z,12.00
2018-04-14T17:33:04.940Z,11.93
2018-04-14T17:35:32.483Z,13.57
2018-04-14T17:38:00.026Z,12.80
2018-04-14T17:40:27.592Z,12.23
2018-04-14T17:42:55.139Z,11.73
2018-04-14T17:45:22.638Z,12.23
2018-04-14T17:47:50.196Z,12.17
2018-04-14T17:50:17.712Z,14.23
2018-04-14T17:52:45.225Z,14.53
2018-04-14T17:55:12.736Z,14.57
2018-04-14T17:57:40.244Z,13.80
2018-04-14T18:00:07.796Z,16.37
2018-04-14T18:02:35.344Z,14.57
2018-04-14T18:05:02.883Z,16.40
2018-04-14T18:07:30.388Z,13.63
2018-04-14T18:09:57.942Z,14.77
2018-04-14T18:12:25.448Z,13.60
2018-04-14T18:14:52.952Z,13.87
2018-04-14T18:17:20.517Z,13.33
2018-04-14T18:19:48.051Z,13.37
2018-04-14T18:22:15.576Z,10.60
2018-04-14T18:24:43.129Z,11.80
2018-04-14T18:27:10.624Z,10.67
2018-04-14T18:29:38.176Z,10.20
2018-04-14T18:32:05.725Z,10.93
2018-04-14T18:34:33.230Z,10.20
2018-04-14T18:37:00.790Z,10.03
2018-04-14T18:39:28.358Z,10.20
2018-04-14T18:41:56.741Z,10.17
2018-04-14T18:44:23.553Z,10.70
2018-04-14T18:46:51.097Z,9.70
2018-04-14T18:49:18.607Z,9.20
2018-04-14T18:51:46.168Z,9.10
2018-04-14T18:54:13.876Z,9.37
2018-04-14T18:56:41.375Z,9.00
2018-04-14T18:59:09.815Z,9.20
2018-04-14T19:01:37.369Z,9.23
2018-04-14T19:04:04.926Z,9.40
2018-04-14T19:06:32.440Z,9.47
2018-04-14T19:09:00.043Z,10.40
2018-04-14T19:11:27.543Z,9.77
2018-04-14T19:13:55.047Z,10.77
2018-04-14T19:16:22.577Z,12.27
2018-04-14T19:18:50.083Z,11.53
2018-04-14T19:21:17.641Z,10.70
2018-04-14T19:23:45.148Z,9.80
2018-04-14T19:26:12.708Z,9.70
2018-04-14T19:28:40.218Z,11.30
2018-04-14T19:31:07.727Z,11.50
2018-04-14T19:33:35.238Z,12.57
2018-04-14T19:36:02.757Z,11.63
2018-04-14T19:38:30.270Z,11.93
2018-04-14T19:40:57.783Z,11.47
2018-04-14T19:43:25.294Z,11.53
2018-04-14T19:45:52.852Z,11.53
2018-04-14T19:48:20.370Z,10.70
2018-04-14T19:50:47.935Z,10.70
2018-04-14T19:53:15.510Z,10.33
2018-04-14T19:55:43.033Z,11.33
2018-04-14T19:58:10.538Z,11.30
2018-04-14T20:00:38.088Z,11.90
2018-04-14T20:03:05.596Z,11.83
2018-04-14T20:05:33.150Z,12.23
2018-04-14T20:08:00.655Z,11.93
2018-04-14T20:10:28.213Z,10.67
2018-04-14T20:12:55.720Z,12.20
2018-04-14T20:15:23.235Z,12.13
2018-04-14T20:17:50.798Z,10.60
2018-04-14T20:20:18.313Z,10.47
2018-04-14T20:22:45.961Z,11.53
2018-04-14T20:25:13.525Z,10.40
2018-04-14T20:27:41.007Z,10.73
2018-04-14T20:30:08.565Z,11.60
2018-04-14T20:32:36.149Z,11.43
2018-04-14T20:35:03.695Z,11.70
2018-04-14T20:37:31.266Z,11.77
2018-04-14T20:39:58.788Z,12.13
2018-04-14T20:42:26.291Z,10.90
2018-04-14T20:44:53.798Z,11.80
2018-04-14T20:47:21.317Z,12.67
2018-04-14T20:49:48.876Z,11.77
2018-04-14T20:52:16.424Z,11.87
2018-04-14T20:54:43.938Z,11.97
2018-04-14T20:57:11.451Z,12.00
2018-04-14T20:59:39.013Z,12.57
2018-04-14T21:02:06.524Z,12.53
2018-04-14T21:04:34.089Z,12.07
2018-04-14T21:07:01.606Z,11.90
2018-04-14T21:09:29.112Z,12.27
2018-04-14T21:11:56.622Z,12.47
2018-04-14T21:14:24.776Z,12.13
2018-04-14T21:16:52.324Z,12.57
2018-04-14T21:19:19.834Z,13.13
2018-04-14T21:21:47.345Z,12.03
2018-04-14T21:24:14.873Z,12.90
2018-04-14T21:26:42.508Z,12.53
2018-04-14T21:29:10.032Z,12.50
2018-04-14T21:31:37.608Z,12.17
2018-04-14T21:34:05.170Z,12.50
2018-04-14T21:36:32.775Z,12.23
2018-04-14T21:39:00.317Z,12.73
2018-04-14T21:41:27.872Z,12.43
2018-04-14T21:43:55.427Z,12.17
2018-04-14T21:46:23.048Z,12.83
2018-04-14T21:48:50.624Z,11.83
2018-04-14T21:51:18.280Z,13.47
2018-04-14T21:53:45.901Z,13.03
2018-04-14T21:56:13.441Z,12.77
2018-04-14T21:58:41.027Z,11.60
2018-04-14T22:01:08.617Z,12.33
2018-04-14T22:03:36.201Z,12.40
2018-04-14T22:06:03.749Z,12.00
2018-04-14T22:08:31.333Z,12.30
2018-04-14T22:10:58.872Z,11.60
2018-04-14T22:13:26.469Z,12.40
2018-04-14T22:15:54.061Z,12.03
2018-04-14T22:18:21.658Z,12.17
2018-04-14T22:20:49.208Z,11.67
2018-04-14T22:23:16.789Z,11.27
2018-04-14T22:25:44.329Z,11.37
2018-04-14T22:28:11.880Z,10.90
2018-04-14T22:30:39.430Z,12.20
2018-04-14T22:33:07.013Z,12.00
2018-04-14T22:35:34.614Z,11.80
2018-04-14T22:38:02.161Z,11.70
2018-04-14T22:40:29.701Z,11.17
2018-04-14T22:42:57.248Z,11.33
2018-04-14T22:45:24.787Z,11.30
2018-04-14T22:47:52.333Z,11.53
2018-04-14T22:50:19.881Z,11.93
2018-04-14T22:52:47.420Z,11.13
2018-04-14T22:55:15.017Z,11.67
2018-04-14T22:57:42.586Z,11.60
2018-04-14T23:00:10.193Z,11.97
2018-04-14T23:02:37.785Z,11.23
2018-04-14T23:05:05.329Z,12.03
2018-04-14T23:07:32.913Z,11.73
2018-04-14T23:10:00.469Z,11.20
2018-04-14T23:12:28.013Z,10.83
2018-04-14T23:14:55.561Z,11.10
2018-04-14T23:17:23.152Z,11.60
2018-04-14T23:19:50.706Z,11.10
2018-04-14T23:22:18.252Z,11.67
2018-04-14T23:24:45.809Z,11.50
2018-04-14T23:27:13.406Z,11.23
2018-04-14T23:29:40.965Z,12.27
2018-04-14T23:32:08.557Z,11.50
2018-04-14T23:34:36.104Z,11.13
2018-04-14T23:37:03.683Z,12.07
2018-04-14T23:39:31.230Z,11.80
2018-04-14T23:41:58.767Z,12.53
2018-04-14T23:44:26.366Z,27.43
2018-04-14T23:46:53.920Z,34.07
2018-04-14T23:49:21.478Z,27.77
2018-04-14T23:51:49.056Z,20.00
2018-04-14T23:54:16.628Z,16.30
2018-04-14T23:56:44.212Z,13.33
2018-04-14T23:59:11.765Z,12.70
